Time;durP1;ratioP1;P1;durP2;ratioP2;P2;SDS_P1;SDS_P2;PMS_P1;PMS_P2;Temp;Humidity;BMP_temperature;BMP_pressure;BME280_temperature;BME280_humidity;BME280_pressure;Samples;Min_cycle;Max_cycle;Signal;HPM_P1;HPM_P2
2021/12/26 00:00:49;;;;;;;4.75;2.13;;;-1.30;99.90;;;;;;5035956;28;20029;-83
2021/12/26 00:03:14;;;;;;;10.27;2.13;;;-1.30;99.90;;;;;;5036131;28;20021;-83
2021/12/26 00:05:40;;;;;;;3.42;1.60;;;-1.30;99.90;;;;;;5021847;28;20046;-83
2021/12/26 00:08:06;;;;;;;3.83;1.60;;;-1.30;99.90;;;;;;5038193;28;20088;-83
2021/12/26 00:10:32;;;;;;;4.07;1.90;;;-1.30;99.40;;;;;;5038445;28;20030;-83
2021/12/26 00:12:58;;;;;;;3.97;1.50;;;-1.40;99.90;;;;;;5021896;28;20033;-83
2021/12/26 00:15:24;;;;;;;3.45;1.50;;;-1.40;99.90;;;;;;5037638;28;20029;-84
2021/12/26 00:17:50;;;;;;;4.45;2.00;;;-1.30;99.90;;;;;;5036368;28;20383;-83
2021/12/26 00:20:20;;;;;;;5.28;1.98;;;-1.40;99.90;;;;;;5036289;28;20026;-83
2021/12/26 00:22:47;;;;;;;3.65;1.52;;;-1.40;99.90;;;;;;5036732;28;20025;-83
2021/12/26 00:25:15;;;;;;;6.57;2.42;;;-1.40;99.70;;;;;;5036110;28;20025;-84
2021/12/26 00:27:42;;;;;;;6.40;2.38;;;-1.40;99.90;;;;;;5035749;28;20440;-83
2021/12/26 00:30:12;;;;;;;2.95;1.50;;;-1.40;99.90;;;;;;5035939;28;20052;-83
2021/12/26 00:32:39;;;;;;;2.72;1.60;;;-1.40;99.90;;;;;;5031799;28;20032;-83
2021/12/26 00:35:05;;;;;;;8.15;2.13;;;-1.40;99.90;;;;;;5036119;28;20467;-83
2021/12/26 00:37:31;;;;;;;5.13;2.00;;;-1.50;99.80;;;;;;5036128;28;20021;-83
2021/12/26 00:39:57;;;;;;;3.65;1.60;;;-1.50;99.40;;;;;;5035435;28;20026;-84
2021/12/26 00:42:22;;;;;;;4.70;1.75;;;-1.50;99.90;;;;;;5002991;28;20487;-83
2021/12/26 00:44:48;;;;;;;3.40;1.67;;;-1.50;99.90;;;;;;5037493;28;20101;-83
2021/12/26 00:47:14;;;;;;;3.13;1.60;;;-1.50;99.90;;;;;;5019887;28;20029;-83
2021/12/26 00:49:40;;;;;;;4.25;1.92;;;-1.50;99.90;;;;;;5018949;28;20032;-83
2021/12/26 00:52:07;;;;;;;4.57;1.80;;;-1.50;99.90;;;;;;5018561;28;20045;-83
2021/12/26 00:54:33;;;;;;;4.13;1.70;;;-1.50;99.90;;;;;;5019189;28;20081;-83
2021/12/26 00:57:00;;;;;;;4.32;1.90;;;-1.50;99.90;;;;;;5035419;28;20535;-83
2021/12/26 00:59:26;;;;;;;3.83;1.70;;;-1.50;99.90;;;;;;5034958;28;20072;-83
2021/12/26 01:01:53;;;;;;;6.18;2.30;;;-1.50;99.90;;;;;;5034935;28;20025;-83
2021/12/26 01:04:20;;;;;;;4.40;1.75;;;-1.50;99.70;;;;;;5003080;28;20040;-83
2021/12/26 01:06:46;;;;;;;5.57;2.50;;;-1.50;99.80;;;;;;5035255;28;20017;-83
2021/12/26 01:09:17;;;;;;;4.45;1.70;;;-1.60;99.60;;;;;;5018367;28;20048;-84
2021/12/26 01:11:48;;;;;;;6.15;1.90;;;-1.60;99.90;;;;;;5018803;28;20057;-84
2021/12/26 01:14:16;;;;;;;3.72;1.48;;;-1.60;99.90;;;;;;5003312;28;20022;-84
2021/12/26 01:16:43;;;;;;;4.68;2.10;;;-1.60;99.70;;;;;;5018652;28;20034;-84
2021/12/26 01:19:14;;;;;;;5.90;2.03;;;-1.60;99.90;;;;;;5035647;28;20076;-84
2021/12/26 01:21:42;;;;;;;3.30;1.67;;;-1.60;99.90;;;;;;5018820;28;20022;-84
2021/12/26 01:24:14;;;;;;;4.45;1.80;;;-1.60;99.90;;;;;;5035345;28;20032;-84
2021/12/26 01:26:41;;;;;;;7.75;2.15;;;-1.60;99.90;;;;;;5026693;28;20018;-84
2021/12/26 01:29:07;;;;;;;4.63;1.45;;;-1.60;99.90;;;;;;5035107;28;20435;-84
2021/12/26 01:31:33;;;;;;;4.13;1.90;;;-1.60;99.90;;;;;;5018036;28;20033;-84
2021/12/26 01:34:03;;;;;;;4.10;1.83;;;-1.60;99.90;;;;;;5034299;28;20029;-82
2021/12/26 01:36:33;;;;;;;4.85;1.65;;;-1.60;99.90;;;;;;5033536;28;20524;-82
2021/12/26 01:39:01;;;;;;;3.50;1.55;;;-1.60;99.90;;;;;;5001516;28;20466;-82
2021/12/26 01:41:28;;;;;;;4.00;1.67;;;-1.60;99.90;;;;;;5017410;28;20656;-81
2021/12/26 01:43:58;;;;;;;7.38;2.03;;;-1.60;99.90;;;;;;5035106;28;20139;-81
2021/12/26 01:46:26;;;;;;;3.92;1.85;;;-1.60;99.90;;;;;;5030729;28;20087;-81
2021/12/26 01:49:17;;;;;;;4.75;1.60;;;-1.60;99.90;;;;;;5016874;28;20478;-81
2021/12/26 01:51:49;;;;;;;4.47;1.98;;;-1.60;99.90;;;;;;5025987;28;20026;-82
2021/12/26 01:57:15;;;;;;;5.07;1.83;;;-1.60;99.90;;;;;;5032289;28;20364;-81
2021/12/26 01:59:41;;;;;;;4.15;1.52;;;-1.60;99.90;;;;;;5027758;28;20049;-81
2021/12/26 02:02:08;;;;;;;3.75;1.70;;;-1.70;99.90;;;;;;5013269;28;20045;-81
2021/12/26 02:04:37;;;;;;;3.05;1.60;;;-1.70;99.90;;;;;;4996933;28;20034;-81
2021/12/26 02:07:04;;;;;;;5.03;1.90;;;-1.70;99.90;;;;;;5014423;28;20026;-81
2021/12/26 02:09:38;;;;;;;4.43;1.50;;;-1.70;99.90;;;;;;5013099;28;20594;-81
2021/12/26 02:12:05;;;;;;;3.78;1.60;;;-1.70;99.90;;;;;;4996675;28;20121;-81
2021/12/26 02:14:31;;;;;;;6.03;1.70;;;-1.70;99.90;;;;;;5013052;28;20046;-81
2021/12/26 02:16:57;;;;;;;3.67;1.70;;;-1.60;99.90;;;;;;5014204;28;20030;-81
2021/12/26 02:19:23;;;;;;;4.22;1.60;;;-1.70;99.90;;;;;;5013153;28;20360;-81
2021/12/26 02:24:21;;;;;;;3.50;1.70;;;-1.70;99.90;;;;;;5014242;28;20069;-81
2021/12/26 02:29:31;;;;;;;4.72;1.92;;;-1.70;99.90;;;;;;5013527;28;20454;-81
2021/12/26 02:31:57;;;;;;;3.72;1.60;;;-1.70;99.50;;;;;;5012839;28;20030;-81
2021/12/26 02:34:22;;;;;;;3.33;1.63;;;-1.70;99.90;;;;;;5012678;28;20097;-82
2021/12/26 02:36:48;;;;;;;3.80;1.55;;;-1.80;99.90;;;;;;4996354;28;20022;-81
2021/12/26 02:39:15;;;;;;;3.53;1.58;;;-1.70;99.90;;;;;;4996342;28;20068;-81
2021/12/26 02:41:42;;;;;;;5.78;1.98;;;-1.80;99.90;;;;;;5012645;28;20034;-81
2021/12/26 02:44:08;;;;;;;3.40;1.58;;;-1.80;99.90;;;;;;5010262;28;20032;-81
2021/12/26 02:46:34;;;;;;;4.28;2.00;;;-1.80;99.90;;;;;;5012423;28;20024;-81
2021/12/26 02:49:00;;;;;;;3.78;1.80;;;-1.90;99.90;;;;;;5012565;28;20038;-81
2021/12/26 02:51:26;;;;;;;4.68;1.80;;;-1.80;99.90;;;;;;5012737;28;20030;-81
2021/12/26 02:53:52;;;;;;;4.47;2.10;;;-1.80;99.90;;;;;;5018443;28;20491;-81
2021/12/26 02:56:19;;;;;;;3.30;1.75;;;-1.80;99.90;;;;;;5014540;28;20033;-81
2021/12/26 02:58:45;;;;;;;3.15;1.50;;;-1.80;99.90;;;;;;5018913;28;20026;-81
2021/12/26 03:01:20;;;;;;;4.20;1.67;;;-1.80;99.90;;;;;;5002621;28;20046;-81
2021/12/26 03:03:46;;;;;;;4.53;1.60;;;-1.80;99.90;;;;;;5019078;28;20060;-81
2021/12/26 03:06:30;;;;;;;4.47;1.80;;;-1.80;99.90;;;;;;5025595;28;20025;-81
2021/12/26 03:08:56;;;;;;;3.80;1.90;;;-1.90;99.90;;;;;;5018815;28;20108;-81
2021/12/26 03:11:22;;;;;;;4.47;1.63;;;-1.90;99.80;;;;;;5018853;28;20065;-81
2021/12/26 03:14:13;;;;;;;4.88;2.03;;;-1.90;99.80;;;;;;5018816;28;20072;-81
2021/12/26 03:16:47;;;;;;;2.80;1.40;;;-1.90;99.50;;;;;;5019006;28;20109;-81
2021/12/26 03:19:12;;;;;;;5.28;2.10;;;-1.90;99.90;;;;;;5020090;28;20018;-81
2021/12/26 03:21:38;;;;;;;3.55;1.50;;;-1.90;99.90;;;;;;5002886;28;20137;-84
2021/12/26 03:24:04;;;;;;;3.33;1.70;;;-1.90;99.90;;;;;;5003042;28;20065;-84
2021/12/26 03:26:30;;;;;;;4.53;1.70;;;-1.90;99.90;;;;;;5020525;28;20501;-84
2021/12/26 03:28:55;;;;;;;6.50;1.70;;;-1.90;99.90;;;;;;5019242;28;20091;-84
2021/12/26 03:31:21;;;;;;;5.10;1.42;;;-2.00;99.90;;;;;;5019363;28;20057;-84
2021/12/26 03:33:46;;;;;;;3.13;1.60;;;-1.90;99.90;;;;;;5003087;28;20061;-84
2021/12/26 03:36:12;;;;;;;4.25;2.13;;;-1.90;99.90;;;;;;5019467;28;20106;-84
2021/12/26 03:38:38;;;;;;;3.42;1.40;;;-1.90;99.90;;;;;;5019169;28;20029;-84
2021/12/26 03:41:04;;;;;;;4.00;1.70;;;-1.90;99.90;;;;;;5019415;28;20383;-84
2021/12/26 03:43:30;;;;;;;3.20;1.75;;;-2.00;99.90;;;;;;5019243;28;20026;-84
2021/12/26 03:45:56;;;;;;;4.18;2.10;;;-1.90;99.90;;;;;;5019319;28;20030;-84
2021/12/26 03:48:23;;;;;;;4.50;1.80;;;-2.00;99.90;;;;;;5002680;28;20088;-84
2021/12/26 03:50:49;;;;;;;3.40;1.30;;;-1.90;99.90;;;;;;5019027;28;20022;-84
2021/12/26 03:53:16;;;;;;;7.22;2.28;;;-2.00;99.90;;;;;;4999692;28;20046;-84
2021/12/26 03:55:42;;;;;;;4.07;1.50;;;-2.00;99.80;;;;;;5019380;28;20052;-84
2021/12/26 03:58:08;;;;;;;3.58;1.48;;;-2.00;99.90;;;;;;5019305;28;20022;-84
2021/12/26 04:00:35;;;;;;;4.93;1.80;;;-2.00;99.50;;;;;;5019206;28;20022;-84
2021/12/26 04:03:01;;;;;;;4.30;1.80;;;-2.00;99.90;;;;;;5018659;28;20030;-84
2021/12/26 04:05:27;;;;;;;4.20;1.85;;;-2.00;99.90;;;;;;5020191;28;20033;-84
2021/12/26 04:07:53;;;;;;;4.53;1.70;;;-2.00;99.90;;;;;;5001402;28;20030;-84
2021/12/26 04:10:20;;;;;;;5.50;1.80;;;-2.00;99.90;;;;;;5016593;28;20026;-84
2021/12/26 04:12:48;;;;;;;2.35;1.45;;;-2.00;99.90;;;;;;4999567;28;20062;-84
2021/12/26 04:15:16;;;;;;;3.92;1.52;;;-2.00;99.90;;;;;;5015892;28;20420;-84
2021/12/26 04:17:42;;;;;;;2.90;1.67;;;-2.00;99.90;;;;;;5015588;28;20022;-84
2021/12/26 04:20:09;;;;;;;4.20;1.70;;;-2.00;99.90;;;;;;5015641;28;20022;-84
2021/12/26 04:22:36;;;;;;;4.32;1.45;;;-2.00;99.90;;;;;;4999212;28;20117;-84
2021/12/26 04:25:03;;;;;;;2.45;1.23;;;-2.10;99.90;;;;;;5015748;28;20041;-84
2021/12/26 04:27:28;;;;;;;5.00;2.25;;;-2.10;99.80;;;;;;5015629;28;20022;-84
2021/12/26 04:29:54;;;;;;;3.67;1.35;;;-2.10;99.40;;;;;;5015484;28;20129;-84
2021/12/26 04:35:42;;;;;;;5.05;1.60;;;-2.10;99.90;;;;;;5031909;28;20432;-84
2021/12/26 04:38:08;;;;;;;3.17;1.70;;;-2.10;99.90;;;;;;5034974;28;20021;-84
2021/12/26 04:40:34;;;;;;;3.58;1.67;;;-2.10;99.90;;;;;;5018979;28;20030;-84
2021/12/26 04:43:00;;;;;;;2.75;1.38;;;-2.10;99.90;;;;;;5018558;28;20164;-84
2021/12/26 04:45:26;;;;;;;3.53;1.60;;;-2.20;99.90;;;;;;5018375;28;20387;-84
2021/12/26 04:47:52;;;;;;;4.40;1.50;;;-2.10;99.50;;;;;;4986051;28;20033;-84
2021/12/26 04:50:21;;;;;;;3.10;1.30;;;-2.20;99.70;;;;;;5018507;28;20034;-84
2021/12/26 04:52:47;;;;;;;4.20;2.03;;;-2.20;99.40;;;;;;5034605;28;20049;-84
2021/12/26 04:55:16;;;;;;;3.97;1.70;;;-2.20;99.20;;;;;;5034355;28;20049;-84
2021/12/26 04:57:42;;;;;;;3.03;1.20;;;-2.20;99.30;;;;;;5035784;28;20022;-84
2021/12/26 05:00:11;;;;;;;3.13;1.35;;;-2.20;99.50;;;;;;5018289;28;20051;-84
2021/12/26 05:02:38;;;;;;;4.88;1.45;;;-2.20;99.90;;;;;;5031138;28;20017;-84
2021/12/26 05:05:06;;;;;;;2.95;1.50;;;-2.20;99.90;;;;;;5030228;28;20053;-84
2021/12/26 05:07:32;;;;;;;4.65;1.60;;;-2.20;99.90;;;;;;5018283;28;20360;-84
2021/12/26 05:09:58;;;;;;;3.53;1.70;;;-2.30;99.90;;;;;;5002027;28;20442;-84
2021/12/26 05:12:24;;;;;;;4.10;1.60;;;-2.20;99.90;;;;;;5017913;28;20026;-84
2021/12/26 05:14:51;;;;;;;3.20;1.30;;;-2.20;99.90;;;;;;5018220;28;20485;-84
2021/12/26 05:17:17;;;;;;;4.22;2.05;;;-2.20;99.70;;;;;;5034458;28;20375;-84
2021/12/26 05:19:42;;;;;;;4.10;1.70;;;-2.20;99.70;;;;;;5035246;28;20017;-83
2021/12/26 05:22:08;;;;;;;2.95;1.42;;;-2.20;99.90;;;;;;5001433;28;20068;-84
2021/12/26 05:24:34;;;;;;;3.53;1.77;;;-2.20;99.90;;;;;;5017743;28;20049;-84
2021/12/26 05:27:00;;;;;;;4.03;1.80;;;-2.20;99.90;;;;;;5035145;28;20049;-84
2021/12/26 05:29:25;;;;;;;3.53;1.58;;;-2.10;99.90;;;;;;5032757;28;20033;-84
2021/12/26 05:31:52;;;;;;;3.75;1.50;;;-2.00;99.50;;;;;;5017891;28;20425;-84
2021/12/26 05:34:19;;;;;;;5.07;2.15;;;-2.00;98.90;;;;;;5001485;28;20120;-84
2021/12/26 05:36:45;;;;;;;3.67;1.52;;;-1.90;99.20;;;;;;5017903;28;20097;-84
2021/12/26 05:39:11;;;;;;;5.93;1.88;;;-1.90;97.90;;;;;;5001020;28;20026;-84
2021/12/26 05:41:38;;;;;;;2.72;1.50;;;-1.90;98.20;;;;;;5001517;28;20694;-84
2021/12/26 05:44:05;;;;;;;4.03;2.10;;;-1.80;98.40;;;;;;5017613;28;20044;-85
2021/12/26 05:46:30;;;;;;;4.78;1.77;;;-1.90;98.70;;;;;;5034101;28;20040;-84
2021/12/26 05:48:56;;;;;;;3.22;1.85;;;-1.90;98.30;;;;;;5034923;28;20025;-84
2021/12/26 05:51:23;;;;;;;3.78;1.60;;;-1.90;98.90;;;;;;5017447;28;20040;-84
2021/12/26 05:53:49;;;;;;;3.67;1.70;;;-1.90;99.00;;;;;;5017167;28;20046;-84
2021/12/26 05:56:18;;;;;;;3.38;1.33;;;-2.00;99.40;;;;;;5000588;28;20466;-84
2021/12/26 05:58:43;;;;;;;3.05;1.30;;;-1.90;98.50;;;;;;5017335;28;20064;-84
2021/12/26 06:01:09;;;;;;;2.75;1.40;;;-2.00;99.20;;;;;;5015921;28;20017;-83
2021/12/26 06:03:35;;;;;;;3.03;1.50;;;-2.00;99.20;;;;;;4965333;28;20044;-83
2021/12/26 06:06:01;;;;;;;3.28;1.42;;;-2.00;99.00;;;;;;4981542;28;20026;-84
2021/12/26 06:08:27;;;;;;;3.10;1.52;;;-2.00;98.70;;;;;;4997716;28;20042;-84
2021/12/26 06:10:52;;;;;;;3.17;1.42;;;-2.00;99.00;;;;;;4965538;28;20073;-84
2021/12/26 06:13:18;;;;;;;3.92;1.55;;;-2.00;98.70;;;;;;4981615;28;20030;-83
2021/12/26 06:15:43;;;;;;;6.00;1.35;;;-2.00;98.60;;;;;;4981668;28;20047;-84
2021/12/26 06:18:09;;;;;;;3.92;1.40;;;-2.00;98.30;;;;;;4982809;28;20058;-84
2021/12/26 06:20:35;;;;;;;2.15;1.10;;;-2.00;99.10;;;;;;5014655;28;20379;-84
2021/12/26 06:23:01;;;;;;;3.42;1.40;;;-2.00;99.00;;;;;;5016681;28;20160;-84
2021/12/26 06:25:26;;;;;;;2.83;1.52;;;-2.00;99.10;;;;;;5010542;28;20033;-84
2021/12/26 06:27:52;;;;;;;3.63;1.75;;;-2.00;99.40;;;;;;4999529;28;20037;-84
2021/12/26 06:30:18;;;;;;;3.95;1.60;;;-2.00;99.30;;;;;;5015017;28;20029;-84
2021/12/26 06:32:43;;;;;;;2.90;1.55;;;-1.90;99.00;;;;;;4997816;28;20029;-84
2021/12/26 06:35:10;;;;;;;4.57;1.30;;;-2.00;98.60;;;;;;4998326;28;20060;-84
2021/12/26 06:37:36;;;;;;;2.65;1.50;;;-1.90;99.20;;;;;;5032226;28;20026;-84
2021/12/26 06:40:02;;;;;;;3.55;1.52;;;-2.00;98.80;;;;;;5015887;28;20034;-84
2021/12/26 06:42:30;;;;;;;4.13;1.55;;;-1.90;99.20;;;;;;5032760;28;20125;-84
2021/12/26 06:44:55;;;;;;;3.10;1.30;;;-1.90;99.20;;;;;;5032824;28;20112;-84
2021/12/26 06:47:22;;;;;;;2.83;1.45;;;-1.90;99.60;;;;;;5000226;28;20056;-84
2021/12/26 06:49:48;;;;;;;2.45;1.23;;;-1.90;99.40;;;;;;5032982;28;20084;-84
2021/12/26 06:52:14;;;;;;;3.13;1.33;;;-1.90;98.90;;;;;;5032877;28;20032;-84
2021/12/26 06:54:40;;;;;;;4.35;1.40;;;-1.90;98.90;;;;;;5016148;28;20060;-84
2021/12/26 06:57:07;;;;;;;2.80;1.42;;;-1.90;98.70;;;;;;5032816;28;20017;-84
2021/12/26 06:59:33;;;;;;;3.88;1.65;;;-1.90;99.10;;;;;;5016485;28;20056;-85
2021/12/26 07:01:59;;;;;;;2.92;1.40;;;-1.90;98.90;;;;;;5033969;28;20029;-84
2021/12/26 07:04:25;;;;;;;3.00;1.50;;;-1.90;99.40;;;;;;5034025;28;20084;-84
2021/12/26 07:06:51;;;;;;;4.43;1.70;;;-1.90;99.10;;;;;;5032620;28;20026;-84
2021/12/26 07:09:16;;;;;;;3.20;1.27;;;-1.90;99.40;;;;;;5016394;28;20030;-84
2021/12/26 07:11:42;;;;;;;2.33;1.25;;;-1.80;99.00;;;;;;5016170;28;20061;-84
2021/12/26 07:14:08;;;;;;;4.03;1.50;;;-1.80;99.30;;;;;;5032731;28;20030;-84
2021/12/26 07:16:34;;;;;;;2.85;1.40;;;-1.80;99.30;;;;;;5015412;28;20387;-84
2021/12/26 07:19:18;;;;;;;3.22;1.30;;;-1.80;99.50;;;;;;5030672;28;20022;-84
2021/12/26 07:21:44;;;;;;;4.28;1.63;;;-1.80;99.60;;;;;;5031500;28;20034;-84
2021/12/26 07:24:09;;;;;;;2.25;1.38;;;-1.80;99.20;;;;;;5016165;28;20037;-84
2021/12/26 07:26:35;;;;;;;3.28;1.40;;;-1.80;99.80;;;;;;5033604;28;20051;-84
2021/12/26 07:29:01;;;;;;;4.57;1.75;;;-1.80;99.90;;;;;;5032447;28;20093;-84
2021/12/26 07:31:28;;;;;;;2.55;1.40;;;-1.80;99.90;;;;;;5025612;28;20496;-84
2021/12/26 07:33:54;;;;;;;4.13;1.15;;;-1.80;99.90;;;;;;4996544;28;20117;-84
2021/12/26 07:36:19;;;;;;;5.63;1.73;;;-1.70;99.90;;;;;;5012893;28;20105;-84
2021/12/26 07:38:46;;;;;;;2.08;1.30;;;-1.70;99.90;;;;;;4996723;28;20411;-84
2021/12/26 07:41:12;;;;;;;4.72;1.52;;;-1.70;99.90;;;;;;5012690;28;20025;-84
2021/12/26 07:43:37;;;;;;;3.10;1.52;;;-1.70;99.90;;;;;;5013715;28;20034;-85
2021/12/26 07:46:03;;;;;;;4.53;1.77;;;-1.70;99.90;;;;;;4999979;28;20035;-85
2021/12/26 07:48:29;;;;;;;6.30;2.30;;;-1.70;99.90;;;;;;5016282;28;20030;-85
2021/12/26 07:50:55;;;;;;;4.65;2.33;;;-1.60;99.90;;;;;;5016082;28;20117;-85
2021/12/26 07:53:20;;;;;;;3.78;1.40;;;-1.60;99.90;;;;;;5016401;28;20491;-85
2021/12/26 07:55:47;;;;;;;4.55;1.98;;;-1.60;99.90;;;;;;5016074;28;20043;-85
2021/12/26 07:58:13;;;;;;;3.78;1.60;;;-1.60;99.90;;;;;;5000237;28;20058;-84
2021/12/26 08:00:39;;;;;;;4.03;1.60;;;-1.60;99.90;;;;;;4983772;28;20392;-84
2021/12/26 08:03:05;;;;;;;3.97;1.75;;;-1.70;99.90;;;;;;5016158;28;20045;-85
2021/12/26 08:05:31;;;;;;;3.35;1.70;;;-1.60;99.90;;;;;;5016070;28;20161;-85
2021/12/26 08:07:58;;;;;;;4.07;1.88;;;-1.60;99.90;;;;;;5016195;28;20038;-84
2021/12/26 08:10:23;;;;;;;3.25;1.50;;;-1.60;99.90;;;;;;4999614;28;20022;-84
2021/12/26 08:12:49;;;;;;;6.75;2.00;;;-1.60;99.90;;;;;;4984473;28;20511;-84
2021/12/26 08:15:15;;;;;;;4.50;1.85;;;-1.60;99.90;;;;;;4967613;28;20033;-84
2021/12/26 08:17:41;;;;;;;5.50;1.77;;;-1.60;99.90;;;;;;5031542;28;20091;-84
2021/12/26 08:20:07;;;;;;;3.53;1.60;;;-1.60;99.90;;;;;;5019346;28;20139;-84
2021/12/26 08:22:33;;;;;;;4.28;2.10;;;-1.60;99.90;;;;;;5035373;28;20028;-84
2021/12/26 08:24:59;;;;;;;3.97;1.73;;;-1.60;99.90;;;;;;5035144;28;20120;-82
2021/12/26 08:27:25;;;;;;;5.05;1.55;;;-1.60;99.90;;;;;;5035195;28;20068;-82
2021/12/26 08:29:50;;;;;;;4.57;1.75;;;-1.60;99.90;;;;;;5035613;28;20030;-82
2021/12/26 08:32:17;;;;;;;3.00;1.60;;;-1.60;99.90;;;;;;5015468;28;20418;-82
2021/12/26 08:34:44;;;;;;;3.53;1.40;;;-1.60;99.90;;;;;;5015747;28;20109;-82
2021/12/26 08:37:11;;;;;;;3.25;1.58;;;-1.60;99.90;;;;;;4999227;28;20534;-82
2021/12/26 08:39:40;;;;;;;3.35;1.58;;;-1.60;99.90;;;;;;5016776;28;20026;-82
2021/12/26 08:42:07;;;;;;;4.18;1.70;;;-1.60;99.90;;;;;;4999199;28;20432;-81
2021/12/26 08:44:35;;;;;;;3.28;1.77;;;-1.60;99.90;;;;;;5015624;28;20033;-82
2021/12/26 08:47:04;;;;;;;3.47;1.52;;;-1.60;99.90;;;;;;5015126;28;20029;-82
2021/12/26 08:49:30;;;;;;;4.35;1.80;;;-1.60;99.90;;;;;;4998984;28;20057;-82
2021/12/26 08:51:56;;;;;;;3.55;1.80;;;-1.60;99.90;;;;;;4999059;28;20049;-82
2021/12/26 08:54:24;;;;;;;3.28;1.38;;;-1.50;99.90;;;;;;4997803;28;20041;-82
2021/12/26 08:56:49;;;;;;;4.20;1.92;;;-1.50;99.90;;;;;;5015384;28;20418;-82
2021/12/26 08:59:15;;;;;;;3.63;1.92;;;-1.50;99.90;;;;;;5015589;28;20117;-82
2021/12/26 09:01:41;;;;;;;3.63;1.60;;;-1.50;99.90;;;;;;5030465;28;20026;-82
2021/12/26 09:04:07;;;;;;;4.47;2.00;;;-1.50;99.90;;;;;;5019104;28;20025;-82
2021/12/26 09:06:32;;;;;;;5.82;1.80;;;-1.50;99.90;;;;;;5001933;28;20459;-82
2021/12/26 09:08:59;;;;;;;3.40;1.60;;;-1.50;99.90;;;;;;5027993;23;20092;-82
2021/12/26 09:11:24;;;;;;;4.30;2.13;;;-1.50;99.90;;;;;;5037193;28;20013;-82
2021/12/26 09:13:50;;;;;;;3.47;1.65;;;-1.40;99.90;;;;;;5021100;28;20462;-82
2021/12/26 09:16:16;;;;;;;4.15;1.88;;;-1.40;99.90;;;;;;5037607;28;20517;-82
2021/12/26 09:18:42;;;;;;;5.50;1.88;;;-1.40;99.90;;;;;;5037446;28;20120;-82
2021/12/26 09:21:08;;;;;;;4.00;1.65;;;-1.40;99.90;;;;;;5037281;28;20025;-82
2021/12/26 09:23:34;;;;;;;4.20;1.80;;;-1.30;99.90;;;;;;5037447;28;20462;-82
2021/12/26 09:26:00;;;;;;;3.53;1.73;;;-1.30;99.90;;;;;;5020674;28;20041;-82
2021/12/26 09:28:29;;;;;;;4.93;2.25;;;-1.30;99.90;;;;;;5055133;28;20021;-82
2021/12/26 09:30:55;;;;;;;4.40;2.45;;;-1.20;99.90;;;;;;5020833;28;20040;-82
2021/12/26 09:33:21;;;;;;;3.30;1.55;;;-1.20;99.90;;;;;;5020761;28;20032;-82
2021/12/26 09:35:51;;;;;;;4.15;2.20;;;-1.20;99.90;;;;;;5020661;28;20021;-82
2021/12/26 09:38:17;;;;;;;4.60;2.00;;;-1.10;99.90;;;;;;5037338;28;20013;-83
2021/12/26 09:40:46;;;;;;;3.25;1.60;;;-1.10;99.90;;;;;;5036840;28;20485;-82
2021/12/26 09:43:12;;;;;;;4.72;2.08;;;-1.10;99.90;;;;;;5037099;28;20036;-82
2021/12/26 09:45:38;;;;;;;3.72;2.10;;;-1.00;99.90;;;;;;5020574;28;20028;-82
2021/12/26 09:48:04;;;;;;;3.58;1.80;;;-1.00;99.90;;;;;;5019850;28;20036;-82
2021/12/26 09:50:30;;;;;;;6.00;1.95;;;-1.00;99.90;;;;;;5019356;28;20025;-82
2021/12/26 09:52:56;;;;;;;4.13;1.80;;;-0.90;99.90;;;;;;5020280;28;20036;-82
2021/12/26 09:55:26;;;;;;;4.32;1.85;;;-0.90;99.90;;;;;;5023335;28;20493;-82
2021/12/26 09:57:52;;;;;;;3.80;1.77;;;-0.90;99.90;;;;;;5033841;28;20463;-82
2021/12/26 10:00:23;;;;;;;4.55;1.90;;;-0.80;99.90;;;;;;4984368;28;20029;-82
2021/12/26 10:03:36;;;;;;;3.65;2.10;;;-0.80;99.90;;;;;;5016864;28;20053;-83
2021/12/26 10:06:17;;;;;;;3.97;2.08;;;-0.70;99.90;;;;;;5016602;28;20076;-82
2021/12/26 10:09:19;;;;;;;4.43;1.92;;;-0.60;99.90;;;;;;5034565;28;20045;-83
2021/12/26 10:11:50;;;;;;;5.15;2.88;;;-0.60;99.90;;;;;;4957598;28;20027;-82
2021/12/26 10:14:25;;;;;;;5.13;2.25;;;-0.60;99.90;;;;;;5024947;28;20052;-82
2021/12/26 10:16:59;;;;;;;6.18;2.40;;;-0.60;99.90;;;;;;5032193;28;20025;-83
2021/12/26 10:19:24;;;;;;;4.15;2.03;;;-0.50;99.90;;;;;;5036292;28;20025;-82
2021/12/26 10:21:53;;;;;;;5.32;2.33;;;-0.50;99.90;;;;;;5036001;28;20112;-83
2021/12/26 10:24:34;;;;;;;4.88;2.40;;;-0.50;99.90;;;;;;5052473;28;20039;-83
2021/12/26 10:27:06;;;;;;;5.25;2.30;;;-0.40;99.90;;;;;;5036277;28;20554;-83
2021/12/26 10:29:38;;;;;;;6.40;2.67;;;-0.40;99.90;;;;;;5054788;28;20056;-83
2021/12/26 10:32:15;;;;;;;4.85;2.28;;;-0.40;99.90;;;;;;5053887;28;20027;-83
2021/12/26 10:34:49;;;;;;;4.32;2.30;;;-0.30;99.90;;;;;;5051023;28;20057;-83
2021/12/26 10:37:21;;;;;;;4.47;2.17;;;-0.30;99.90;;;;;;5030298;28;20105;-83
2021/12/26 10:39:58;;;;;;;5.80;3.08;;;-0.20;99.90;;;;;;5035744;28;20036;-83
2021/12/26 10:42:30;;;;;;;5.70;2.35;;;-0.20;99.90;;;;;;5035740;28;20497;-83
2021/12/26 10:44:58;;;;;;;5.32;2.50;;;-0.20;99.90;;;;;;5033052;28;20025;-83
2021/12/26 10:47:30;;;;;;;4.68;2.20;;;-0.10;99.90;;;;;;5033495;28;20021;-84
2021/12/26 10:50:02;;;;;;;4.95;2.30;;;-0.10;99.90;;;;;;5016937;28;20029;-83
2021/12/26 10:52:32;;;;;;;4.65;2.50;;;0.00;99.90;;;;;;5053993;28;20099;-84
2021/12/26 10:55:13;;;;;;;5.88;2.70;;;0.00;99.90;;;;;;5054104;28;20123;-85
2021/12/26 10:57:45;;;;;;;4.63;2.38;;;0.00;99.90;;;;;;5036414;28;20053;-83
2021/12/26 11:00:23;;;;;;;4.30;2.20;;;0.10;99.90;;;;;;5036561;28;20017;-84
2021/12/26 11:03:07;;;;;;;6.40;2.50;;;0.10;99.90;;;;;;5036308;28;20025;-84
2021/12/26 11:05:38;;;;;;;4.10;2.30;;;0.10;99.90;;;;;;5036301;28;20021;-84
2021/12/26 11:08:14;;;;;;;4.97;2.65;;;0.20;99.90;;;;;;5016406;28;20041;-84
2021/12/26 11:10:42;;;;;;;5.88;2.97;;;0.20;99.90;;;;;;5052784;28;20052;-84
2021/12/26 11:13:24;;;;;;;6.03;3.00;;;0.30;99.90;;;;;;5053064;28;20087;-84
2021/12/26 11:16:11;;;;;;;6.75;2.90;;;0.30;99.90;;;;;;5036256;28;20021;-84
2021/12/26 11:18:37;;;;;;;5.55;3.03;;;0.40;99.90;;;;;;5056410;28;20021;-85
2021/12/26 11:21:13;;;;;;;7.07;3.50;;;0.50;99.90;;;;;;5023573;28;20044;-84
2021/12/26 11:23:41;;;;;;;6.03;2.85;;;0.60;99.90;;;;;;5058019;28;20029;-84
2021/12/26 11:26:15;;;;;;;6.85;3.13;;;0.70;99.90;;;;;;5023883;28;20056;-85
2021/12/26 11:28:52;;;;;;;6.80;3.38;;;0.80;99.90;;;;;;5040000;28;20033;-85
2021/12/26 11:31:25;;;;;;;6.70;2.83;;;0.90;99.90;;;;;;5040115;28;20025;-85
2021/12/26 11:33:56;;;;;;;6.43;3.00;;;0.90;99.90;;;;;;5040436;28;20040;-85
2021/12/26 11:36:24;;;;;;;7.57;2.80;;;0.90;99.90;;;;;;5024302;28;20051;-85
2021/12/26 11:38:55;;;;;;;4.85;2.58;;;1.00;99.90;;;;;;5040367;28;20061;-85
2021/12/26 11:41:38;;;;;;;5.93;3.00;;;1.00;99.90;;;;;;5024278;28;20021;-86
2021/12/26 11:44:26;;;;;;;7.40;2.92;;;1.00;99.90;;;;;;5039967;28;20032;-86
2021/12/26 11:47:01;;;;;;;6.68;3.42;;;1.10;99.90;;;;;;5056889;28;20440;-86
2021/12/26 11:50:04;;;;;;;6.28;3.20;;;1.10;99.90;;;;;;5056956;28;20029;-86
2021/12/26 11:52:41;;;;;;;7.78;3.00;;;1.20;99.90;;;;;;5057762;28;20033;-86
2021/12/26 11:55:49;;;;;;;5.68;3.22;;;1.20;99.90;;;;;;5057723;28;20466;-85
2021/12/26 11:58:21;;;;;;;5.70;2.90;;;1.30;99.90;;;;;;5039904;28;20017;-85
2021/12/26 12:00:54;;;;;;;5.53;2.97;;;1.30;99.90;;;;;;5040360;28;20029;-86
2021/12/26 12:03:25;;;;;;;7.72;3.33;;;1.40;99.90;;;;;;5039971;28;20045;-85
2021/12/26 12:05:52;;;;;;;6.82;3.15;;;1.40;99.90;;;;;;5057368;28;20032;-85
2021/12/26 12:08:24;;;;;;;6.95;3.30;;;1.40;99.90;;;;;;5023360;28;20036;-85
2021/12/26 12:10:52;;;;;;;5.78;2.97;;;1.40;99.90;;;;;;5056224;28;20057;-85
2021/12/26 12:13:43;;;;;;;5.75;3.25;;;1.40;99.90;;;;;;5056120;28;20032;-86
2021/12/26 12:16:27;;;;;;;8.68;4.00;;;1.40;99.90;;;;;;5056285;28;20029;-85
2021/12/26 12:18:56;;;;;;;7.13;3.45;;;1.30;99.90;;;;;;5026013;28;20478;-86
2021/12/26 12:21:33;;;;;;;6.75;3.75;;;1.30;99.90;;;;;;5040092;28;20377;-88
2021/12/26 12:24:27;;;;;;;7.15;4.00;;;1.30;99.90;;;;;;5056990;28;20466;-87
2021/12/26 12:27:07;;;;;;;7.60;3.85;;;1.30;99.90;;;;;;5040445;28;20056;-87
2021/12/26 12:29:33;;;;;;;5.53;3.55;;;1.30;99.90;;;;;;5057089;28;20005;-87
2021/12/26 12:32:08;;;;;;;7.85;3.80;;;1.30;99.90;;;;;;5039895;28;20029;-88
2021/12/26 12:35:01;;;;;;;9.75;4.57;;;1.30;99.90;;;;;;5056491;28;20060;-87
2021/12/26 12:37:42;;;;;;;11.18;4.03;;;1.40;99.90;;;;;;5050376;28;20485;-85
2021/12/26 12:40:17;;;;;;;10.32;3.90;;;1.40;99.90;;;;;;5039512;28;20028;-86
2021/12/26 12:43:05;;;;;;;69.95;9.65;;;1.40;99.90;;;;;;5054890;28;20132;-85
2021/12/26 12:45:51;;;;;;;7.95;3.95;;;1.50;99.90;;;;;;5038950;28;20020;-85
2021/12/26 12:48:22;;;;;;;7.25;3.92;;;1.50;99.90;;;;;;5025449;28;20535;-86
2021/12/26 12:50:49;;;;;;;10.02;4.30;;;1.60;99.90;;;;;;5039481;28;20025;-85
2021/12/26 12:53:41;;;;;;;8.15;3.95;;;1.60;99.90;;;;;;5039783;28;20024;-86
2021/12/26 12:56:09;;;;;;;8.10;4.22;;;1.60;99.90;;;;;;5039467;28;20029;-87
2021/12/26 12:58:36;;;;;;;7.72;3.92;;;1.60;99.90;;;;;;5039956;28;20021;-87
2021/12/26 13:01:06;;;;;;;8.55;4.20;;;1.60;99.90;;;;;;5039214;28;20036;-86
2021/12/26 13:03:36;;;;;;;7.78;4.03;;;1.70;99.90;;;;;;5003786;28;20064;-86
2021/12/26 13:06:08;;;;;;;7.60;3.60;;;1.70;99.90;;;;;;5003831;28;20436;-86
2021/12/26 13:08:35;;;;;;;10.30;4.70;;;1.70;99.90;;;;;;5018941;28;20021;-88